Time;durP1;ratioP1;P1;durP2;ratioP2;P2;SDS_P1;SDS_P2;PMS_P1;PMS_P2;Temp;Humidity;BMP_temperature;BMP_pressure;BME280_temperature;BME280_humidity;BME280_pressure;Samples;Min_cycle;Max_cycle;Signal;HPM_P1;HPM_P2
2023/06/01 00:00:14;;;;;;;;;;;16.10;72.70;;;;;;5073769;28;19966;-79
2023/06/01 00:02:40;;;;;;;;;;;16.20;72.10;;;;;;5074176;28;19908;-79
2023/06/01 00:05:05;;;;;;;;;;;16.40;71.60;;;;;;5067251;28;19989;-79
2023/06/01 00:07:32;;;;;;;;;;;16.30;71.50;;;;;;5073516;28;20370;-80
2023/06/01 00:09:58;;;;;;;;;;;16.10;72.50;;;;;;5072583;28;19966;-82
2023/06/01 00:12:23;;;;;;;;;;;16.10;72.60;;;;;;5071125;28;19909;-81
2023/06/01 00:14:49;;;;;;;;;;;16.00;72.80;;;;;;5071595;28;19919;-82
2023/06/01 00:17:14;;;;;;;;;;;16.00;73.20;;;;;;5070270;28;19959;-82
2023/06/01 00:19:40;;;;;;;;;;;16.00;73.10;;;;;;5075309;28;19908;-82
2023/06/01 00:22:07;;;;;;;;;;;16.00;72.80;;;;;;5071000;28;19940;-81
2023/06/01 00:24:32;;;;;;;;;;;16.00;73.00;;;;;;5068025;28;20584;-82
2023/06/01 00:26:58;;;;;;;;;;;15.90;73.50;;;;;;5069531;28;20293;-81
2023/06/01 00:29:23;;;;;;;;;;;15.80;73.70;;;;;;5073732;28;19936;-82
2023/06/01 00:31:48;;;;;;;;;;;15.80;73.60;;;;;;5073442;28;19911;-82
2023/06/01 00:34:14;;;;;;;;;;;15.80;73.50;;;;;;5073980;28;19909;-81
2023/06/01 00:36:40;;;;;;;;;;;15.90;73.30;;;;;;5066191;28;19913;-82
2023/06/01 00:39:05;;;;;;;;;;;15.80;73.60;;;;;;5070478;28;19908;-82
2023/06/01 00:41:31;;;;;;;;;;;15.70;73.90;;;;;;5072325;28;19920;-82
2023/06/01 00:43:56;;;;;;;;;;;15.60;74.30;;;;;;5065115;28;20332;-82
2023/06/01 00:46:22;;;;;;;;;;;15.60;74.40;;;;;;5071259;28;19913;-81
2023/06/01 00:48:48;;;;;;;;;;;15.50;74.40;;;;;;5072380;28;19909;-82
2023/06/01 00:51:15;;;;;;;;;;;15.40;74.70;;;;;;5071148;28;19961;-81
2023/06/01 00:53:40;;;;;;;;;;;15.30;75.10;;;;;;5073034;28;19912;-81
2023/06/01 00:56:06;;;;;;;;;;;15.30;75.30;;;;;;5073085;28;20282;-82
2023/06/01 00:58:32;;;;;;;;;;;15.30;75.40;;;;;;5071107;28;19923;-82
2023/06/01 01:00:57;;;;;;;;;;;15.10;75.90;;;;;;5074861;28;19983;-82
2023/06/01 01:03:25;;;;;;;;;;;15.10;75.90;;;;;;5073939;28;19912;-82
2023/06/01 01:05:57;;;;;;;;;;;15.10;76.20;;;;;;5073431;28;19908;-82
2023/06/01 01:08:34;;;;;;;;;;;15.00;76.30;;;;;;5071955;28;20027;-82
2023/06/01 01:11:05;;;;;;;;;;;15.00;76.60;;;;;;5074613;28;20263;-82
2023/06/01 01:13:37;;;;;;;;;;;15.00;76.60;;;;;;5072297;28;19991;-82
2023/06/01 01:16:07;;;;;;;;;;;15.00;76.60;;;;;;5073107;28;20373;-82
2023/06/01 01:18:38;;;;;;;;;;;15.10;76.60;;;;;;5074452;28;19916;-82
2023/06/01 01:21:21;;;;;;;;;;;15.00;76.90;;;;;;5072967;28;19924;-82
2023/06/01 01:24:18;;;;;;;;;;;14.90;76.90;;;;;;5076928;28;20549;-81
2023/06/01 01:26:51;;;;;;;;;;;14.80;77.20;;;;;;5068903;28;19916;-82
2023/06/01 01:29:20;;;;;;;;;;;14.80;77.00;;;;;;5068252;28;19916;-82
2023/06/01 01:31:46;;;;;;;;;;;14.80;76.90;;;;;;5071683;28;19912;-82
2023/06/01 01:34:11;;;;;;;;;;;14.80;76.80;;;;;;5072569;28;20386;-82
2023/06/01 01:36:37;;;;;;;;;;;14.70;77.10;;;;;;5068462;28;19920;-81
2023/06/01 01:39:02;;;;;;;;;;;14.60;77.40;;;;;;5066474;28;19965;-82
2023/06/01 01:41:28;;;;;;;;;;;14.40;77.80;;;;;;5070993;28;20321;-81
2023/06/01 01:43:53;;;;;;;;;;;14.30;78.20;;;;;;5071831;28;19919;-81
2023/06/01 01:46:26;;;;;;;;;;;14.30;78.40;;;;;;5066945;28;19919;-81
2023/06/01 01:48:52;;;;;;;;;;;14.30;78.10;;;;;;5066502;28;20398;-78
2023/06/01 01:51:41;;;;;;;;;;;14.30;77.80;;;;;;5069272;28;19917;-81
2023/06/01 01:54:07;;;;;;;;;;;14.30;78.00;;;;;;5063653;28;19916;-80
2023/06/01 01:56:35;;;;;;;;;;;14.10;78.20;;;;;;5070466;28;19920;-82
2023/06/01 01:59:01;;;;;;;;;;;14.10;78.20;;;;;;5074617;28;19913;-81
2023/06/01 02:01:26;;;;;;;;;;;14.00;78.50;;;;;;5072627;28;19979;-82
2023/06/01 02:03:59;;;;;;;;;;;13.80;79.10;;;;;;5082649;28;19927;-80
2023/06/01 02:06:24;;;;;;;;;;;13.70;79.40;;;;;;5089814;28;19919;-80
2023/06/01 02:08:50;;;;;;;;;;;13.70;79.70;;;;;;5084500;28;19912;-82
2023/06/01 02:11:15;;;;;;;;;;;13.80;78.90;;;;;;5073283;28;19920;-82
2023/06/01 02:13:41;;;;;;;;;;;13.80;79.10;;;;;;5072826;28;19923;-81
2023/06/01 02:16:06;;;;;;;;;;;13.60;79.50;;;;;;5073526;28;20114;-82
2023/06/01 02:18:32;;;;;;;;;;;13.50;80.10;;;;;;5075043;28;19912;-81
2023/06/01 02:20:57;;;;;;;;;;;13.40;80.20;;;;;;5072175;28;20301;-81
2023/06/01 02:23:23;;;;;;;;;;;13.30;80.20;;;;;;5073695;28;20378;-81
2023/06/01 02:25:48;;;;;;;;;;;13.30;80.60;;;;;;5071268;28;19935;-81
2023/06/01 02:28:14;;;;;;;;;;;13.20;80.80;;;;;;5068145;28;19913;-81
2023/06/01 02:30:39;;;;;;;;;;;13.20;80.60;;;;;;5069983;28;19920;-81
2023/06/01 02:33:05;;;;;;;;;;;13.10;80.60;;;;;;5070685;28;19916;-81
2023/06/01 02:35:30;;;;;;;;;;;13.20;80.70;;;;;;5071090;28;19908;-79
2023/06/01 02:37:56;;;;;;;;;;;13.20;80.80;;;;;;5066114;28;19912;-79
2023/06/01 02:40:22;;;;;;;;;;;13.30;80.40;;;;;;5070990;28;20345;-81
2023/06/01 02:42:47;;;;;;;;;;;13.20;80.50;;;;;;5068249;28;20038;-79
2023/06/01 02:45:13;;;;;;;;;;;13.20;80.10;;;;;;5060441;28;19912;-79
2023/06/01 02:47:38;;;;;;;;;;;13.20;80.30;;;;;;5063215;28;19912;-78
2023/06/01 02:50:04;;;;;;;;;;;13.10;80.20;;;;;;5067077;28;19913;-80
2023/06/01 02:52:31;;;;;;;;;;;12.80;81.00;;;;;;5066527;28;19928;-80
2023/06/01 02:54:56;;;;;;;;;;;12.90;81.10;;;;;;5073393;28;19943;-79
2023/06/01 02:57:22;;;;;;;;;;;12.90;81.10;;;;;;5070806;28;19952;-80
2023/06/01 02:59:47;;;;;;;;;;;12.90;81.20;;;;;;5070733;28;19921;-80
2023/06/01 03:02:12;;;;;;;;;;;12.90;81.60;;;;;;5069176;28;19917;-79
2023/06/01 03:04:38;;;;;;;;;;;13.00;81.40;;;;;;5070022;28;19922;-81
2023/06/01 03:07:04;;;;;;;;;;;13.00;81.00;;;;;;5068572;28;19912;-80
2023/06/01 03:09:29;;;;;;;;;;;12.90;80.20;;;;;;5075974;28;19912;-80
2023/06/01 03:11:55;;;;;;;;;;;12.80;81.10;;;;;;5073584;28;19954;-80
2023/06/01 03:14:20;;;;;;;;;;;12.80;81.00;;;;;;5074921;28;20404;-80
2023/06/01 03:16:46;;;;;;;;;;;12.70;81.20;;;;;;5075473;28;19957;-80
2023/06/01 03:19:11;;;;;;;;;;;12.70;80.80;;;;;;5078016;28;19938;-80
2023/06/01 03:21:37;;;;;;;;;;;12.90;80.50;;;;;;5075415;28;19916;-80
2023/06/01 03:24:02;;;;;;;;;;;12.90;80.30;;;;;;5068436;28;19913;-80
2023/06/01 03:26:28;;;;;;;;;;;12.70;80.70;;;;;;5075087;28;19924;-80
2023/06/01 03:28:53;;;;;;;;;;;12.60;81.20;;;;;;5076083;28;19919;-81
2023/06/01 03:31:19;;;;;;;;;;;12.60;81.30;;;;;;5074686;28;19920;-81
2023/06/01 03:33:44;;;;;;;;;;;12.60;81.10;;;;;;5074532;28;20362;-80
2023/06/01 03:36:10;;;;;;;;;;;12.60;81.00;;;;;;5074969;28;19959;-80
2023/06/01 03:38:35;;;;;;;;;;;12.60;80.60;;;;;;5072408;28;19916;-81
2023/06/01 03:41:01;;;;;;;;;;;12.60;80.70;;;;;;5075617;28;19916;-81
2023/06/01 03:43:26;;;;;;;;;;;12.80;80.20;;;;;;5074448;28;20010;-80
2023/06/01 03:45:52;;;;;;;;;;;12.60;80.10;;;;;;5074992;28;19920;-81
2023/06/01 03:48:17;;;;;;;;;;;12.40;80.80;;;;;;5075308;28;20278;-80
2023/06/01 03:50:43;;;;;;;;;;;12.30;81.90;;;;;;5073397;28;20378;-80
2023/06/01 03:53:08;;;;;;;;;;;12.30;81.40;;;;;;5069657;28;19913;-80
2023/06/01 03:55:34;;;;;;;;;;;12.50;81.10;;;;;;5075375;28;19916;-81
2023/06/01 03:58:02;;;;;;;;;;;12.40;81.00;;;;;;5073590;28;19992;-81
2023/06/01 04:00:28;;;;;;;;;;;12.50;80.50;;;;;;5073907;28;19927;-80
2023/06/01 04:02:54;;;;;;;;;;;12.40;80.30;;;;;;5072230;28;19976;-80
2023/06/01 04:05:20;;;;;;;;;;;12.30;80.30;;;;;;5069111;28;20311;-80
2023/06/01 04:07:50;;;;;;;;;;;12.20;80.50;;;;;;5071957;28;20007;-80
2023/06/01 04:10:16;;;;;;;;;;;12.30;80.90;;;;;;5076740;28;19947;-80
2023/06/01 04:12:45;;;;;;;;;;;12.10;80.60;;;;;;5072542;28;19919;-81
2023/06/01 04:15:11;;;;;;;;;;;12.20;80.00;;;;;;5071382;28;20373;-81
2023/06/01 04:17:38;;;;;;;;;;;12.10;81.00;;;;;;5073561;28;19909;-81
2023/06/01 04:20:06;;;;;;;;;;;12.10;79.80;;;;;;5070041;28;19920;-80
2023/06/01 04:22:32;;;;;;;;;;;12.10;80.10;;;;;;5070601;28;19920;-80
2023/06/01 04:24:57;;;;;;;;;;;12.00;80.40;;;;;;5073123;28;20526;-81
2023/06/01 04:27:24;;;;;;;;;;;12.10;79.80;;;;;;5064818;28;19912;-81
2023/06/01 04:29:50;;;;;;;;;;;12.10;79.60;;;;;;5072169;28;19917;-80
2023/06/01 04:32:21;;;;;;;;;;;12.10;79.30;;;;;;5071098;28;19921;-80
2023/06/01 04:34:49;;;;;;;;;;;12.00;78.90;;;;;;5072714;28;19912;-80
2023/06/01 04:37:15;;;;;;;;;;;11.90;79.00;;;;;;5070979;28;20423;-80
2023/06/01 04:39:42;;;;;;;;;;;11.80;79.80;;;;;;5065405;28;20024;-79
2023/06/01 04:42:08;;;;;;;;;;;11.90;79.90;;;;;;5072551;28;20301;-80
2023/06/01 04:44:34;;;;;;;;;;;11.90;79.40;;;;;;5058634;28;19916;-81
2023/06/01 04:47:03;;;;;;;;;;;11.80;79.70;;;;;;5072215;28;19919;-80
2023/06/01 04:49:29;;;;;;;;;;;11.80;79.80;;;;;;5071803;28;19916;-80
2023/06/01 04:51:54;;;;;;;;;;;11.90;79.80;;;;;;5074882;28;20840;-84
2023/06/01 04:54:20;;;;;;;;;;;12.00;79.00;;;;;;5075614;28;19921;-80
2023/06/01 04:56:45;;;;;;;;;;;11.90;79.70;;;;;;5074720;28;19919;-80
2023/06/01 04:59:11;;;;;;;;;;;11.90;79.60;;;;;;5075890;28;19940;-80
2023/06/01 05:01:38;;;;;;;;;;;12.00;79.60;;;;;;5089612;22;19930;-84
2023/06/01 05:04:04;;;;;;;;;;;12.00;79.30;;;;;;5070323;28;19917;-84
2023/06/01 05:06:29;;;;;;;;;;;12.10;78.60;;;;;;5073645;28;20385;-83
2023/06/01 05:09:02;;;;;;;;;;;12.10;78.70;;;;;;5071565;28;20007;-85
2023/06/01 05:11:28;;;;;;;;;;;12.00;79.20;;;;;;5068740;28;20250;-84
2023/06/01 05:13:57;;;;;;;;;;;12.10;79.20;;;;;;5074690;28;20410;-83
2023/06/01 05:16:23;;;;;;;;;;;12.10;79.30;;;;;;5068507;28;20326;-84
2023/06/01 05:18:49;;;;;;;;;;;12.00;79.20;;;;;;5072765;28;19926;-84
2023/06/01 05:21:14;;;;;;;;;;;12.10;79.20;;;;;;5076351;28;19921;-84
2023/06/01 05:23:40;;;;;;;;;;;11.90;79.50;;;;;;5077004;28;19972;-85
2023/06/01 05:26:05;;;;;;;;;;;11.90;79.60;;;;;;5073417;28;19912;-84
2023/06/01 05:28:31;;;;;;;;;;;12.10;78.50;;;;;;5077599;28;19912;-84
2023/06/01 05:31:03;;;;;;;;;;;12.00;79.10;;;;;;5081843;28;19927;-86
2023/06/01 05:33:29;;;;;;;;;;;12.00;78.60;;;;;;5072083;28;20005;-85
2023/06/01 05:35:54;;;;;;;;;;;11.90;79.00;;;;;;5074551;28;19916;-84
2023/06/01 05:38:20;;;;;;;;;;;11.90;79.10;;;;;;5067616;28;19912;-84
2023/06/01 05:40:45;;;;;;;;;;;12.00;78.40;;;;;;5076468;28;19916;-84
2023/06/01 05:43:11;;;;;;;;;;;12.00;78.20;;;;;;5072402;28;19912;-85
2023/06/01 05:45:37;;;;;;;;;;;12.00;78.00;;;;;;5080087;28;19924;-86
2023/06/01 05:48:03;;;;;;;;;;;12.00;79.00;;;;;;5082634;28;19920;-86
2023/06/01 05:50:28;;;;;;;;;;;12.10;78.20;;;;;;5086396;28;20374;-85
2023/06/01 05:52:57;;;;;;;;;;;12.10;78.60;;;;;;5080509;28;20220;-86
2023/06/01 05:55:22;;;;;;;;;;;12.20;77.90;;;;;;5077885;28;19913;-86
2023/06/01 05:57:48;;;;;;;;;;;12.40;77.60;;;;;;5072122;28;19908;-85
2023/06/01 06:00:15;;;;;;;;;;;12.50;77.00;;;;;;5088961;28;20370;-85
2023/06/01 06:02:42;;;;;;;;;;;12.50;77.20;;;;;;5075243;28;19927;-84
2023/06/01 06:05:08;;;;;;;;;;;12.50;77.30;;;;;;5072784;28;20293;-85
2023/06/01 06:07:34;;;;;;;;;;;12.30;77.90;;;;;;5066191;28;20027;-84
2023/06/01 06:09:59;;;;;;;;;;;12.30;78.10;;;;;;5066226;28;20392;-84
2023/06/01 06:12:25;;;;;;;;;;;12.50;78.20;;;;;;5075092;28;19916;-85
2023/06/01 06:14:51;;;;;;;;;;;12.60;76.90;;;;;;5072452;28;19912;-85
2023/06/01 06:17:16;;;;;;;;;;;12.40;77.30;;;;;;5074382;28;19916;-84
2023/06/01 06:19:47;;;;;;;;;;;12.60;77.40;;;;;;5087780;28;19967;-85
2023/06/01 06:22:13;;;;;;;;;;;12.80;76.40;;;;;;5071909;28;19969;-85
2023/06/01 06:24:39;;;;;;;;;;;12.90;75.10;;;;;;5071420;28;19917;-85
2023/06/01 06:27:43;;;;;;;;;;;12.90;74.80;;;;;;5072780;28;19912;-89
2023/06/01 06:30:10;;;;;;;;;;;12.80;74.90;;;;;;5079161;28;19913;-86
2023/06/01 06:33:04;;;;;;;;;;;13.00;73.80;;;;;;5076183;28;19913;-88
2023/06/01 06:35:42;;;;;;;;;;;13.00;74.10;;;;;;5076012;28;19934;-88
2023/06/01 06:38:19;;;;;;;;;;;13.00;74.50;;;;;;5074258;28;19912;-90
2023/06/01 06:40:48;;;;;;;;;;;12.90;74.90;;;;;;5071156;28;19956;-87
2023/06/01 06:43:19;;;;;;;;;;;13.00;75.10;;;;;;5073016;28;20007;-86
2023/06/01 06:46:05;;;;;;;;;;;13.30;73.20;;;;;;5074495;28;19916;-86
2023/06/01 06:48:31;;;;;;;;;;;13.20;72.90;;;;;;5077095;28;20006;-86
2023/06/01 06:50:59;;;;;;;;;;;13.00;73.30;;;;;;5071246;28;19971;-88
2023/06/01 06:53:25;;;;;;;;;;;12.90;73.70;;;;;;5074634;28;19912;-87
2023/06/01 06:55:51;;;;;;;;;;;13.00;73.40;;;;;;5076364;28;20269;-88
2023/06/01 06:58:24;;;;;;;;;;;12.80;74.10;;;;;;5076533;28;20012;-87
2023/06/01 07:00:50;;;;;;;;;;;12.90;74.10;;;;;;5072514;28;19923;-89
2023/06/01 07:03:19;;;;;;;;;;;13.00;73.30;;;;;;5073468;28;19912;-87
2023/06/01 07:05:45;;;;;;;;;;;13.00;73.10;;;;;;5073531;28;19913;-88
2023/06/01 07:08:19;;;;;;;;;;;13.10;72.60;;;;;;5073677;28;19915;-88
2023/06/01 07:10:52;;;;;;;;;;;13.10;72.90;;;;;;5064706;28;19912;-88
2023/06/01 07:13:18;;;;;;;;;;;13.10;72.80;;;;;;5077823;28;19913;-88
2023/06/01 07:15:52;;;;;;;;;;;13.20;73.40;;;;;;5075562;28;19931;-87
2023/06/01 07:18:17;;;;;;;;;;;13.10;73.70;;;;;;5093397;28;19921;-88
2023/06/01 07:20:46;;;;;;;;;;;13.20;72.30;;;;;;5075332;28;20400;-87
2023/06/01 07:23:16;;;;;;;;;;;13.30;72.20;;;;;;5066730;28;19913;-87
2023/06/01 07:25:44;;;;;;;;;;;13.30;72.30;;;;;;5071673;28;20270;-87
2023/06/01 07:28:12;;;;;;;;;;;13.30;73.30;;;;;;5074051;28;19909;-87
2023/06/01 07:30:40;;;;;;;;;;;13.20;73.60;;;;;;5076504;28;19912;-87
2023/06/01 07:33:08;;;;;;;;;;;13.30;72.70;;;;;;5077866;28;19908;-87
2023/06/01 07:35:34;;;;;;;;;;;13.40;72.40;;;;;;5073649;28;19986;-87
2023/06/01 07:38:03;;;;;;;;;;;13.70;70.60;;;;;;5073376;28;19912;-86
2023/06/01 07:40:28;;;;;;;;;;;13.60;70.20;;;;;;5068769;28;19908;-86
2023/06/01 07:42:54;;;;;;;;;;;13.60;71.10;;;;;;5069545;28;19971;-86
2023/06/01 07:45:23;;;;;;;;;;;13.60;71.40;;;;;;5073550;28;20324;-88
2023/06/01 07:47:53;;;;;;;;;;;13.60;71.90;;;;;;5073664;28;19959;-87
2023/06/01 07:50:19;;;;;;;;;;;13.80;71.80;;;;;;5074035;28;19922;-88
2023/06/01 07:52:45;;;;;;;;;;;14.00;69.40;;;;;;5075388;28;20378;-87
2023/06/01 07:55:11;;;;;;;;;;;14.00;70.30;;;;;;5073530;28;20390;-87
2023/06/01 07:57:42;;;;;;;;;;;13.80;70.30;;;;;;5074067;28;19913;-88
2023/06/01 08:00:11;;;;;;;;;;;13.90;70.70;;;;;;5064689;28;19913;-88
2023/06/01 08:02:39;;;;;;;;;;;13.70;70.80;;;;;;5072515;28;19928;-87
2023/06/01 08:05:14;;;;;;;;;;;13.60;72.10;;;;;;5077536;28;20070;-87
2023/06/01 08:07:49;;;;;;;;;;;13.90;71.30;;;;;;5082059;28;19912;-87
2023/06/01 08:10:14;;;;;;;;;;;14.10;71.10;;;;;;5067603;28;19912;-88
2023/06/01 08:12:52;;;;;;;;;;;;;;;;;;;;;
2023/06/01 08:15:31;;;;;;;;;;;14.40;69.90;;;;;;5073239;28;19934;-87
2023/06/01 08:18:05;;;;;;;;;;;14.60;69.90;;;;;;5072696;28;19974;-87
2023/06/01 08:20:31;;;;;;;;;;;14.60;68.40;;;;;;5071227;28;19912;-88
2023/06/01 08:22:59;;;;;;;;;;;14.50;68.50;;;;;;5065678;28;20432;-87
2023/06/01 08:25:27;;;;;;;;;;;14.60;67.90;;;;;;5073470;28;19912;-87
2023/06/01 08:27:57;;;;;;;;;;;14.40;68.60;;;;;;5070506;28;19946;-87
2023/06/01 08:30:26;;;;;;;;;;;14.50;69.00;;;;;;5071974;28;19913;-86
2023/06/01 08:32:55;;;;;;;;;;;14.50;69.60;;;;;;5073189;28;19912;-87
2023/06/01 08:35:25;;;;;;;;;;;14.50;69.80;;;;;;5065759;28;19959;-87
2023/06/01 08:37:54;;;;;;;;;;;14.30;69.20;;;;;;5080114;28;19923;-87
2023/06/01 08:40:22;;;;;;;;;;;14.10;70.00;;;;;;5077423;28;20028;-86
2023/06/01 08:42:54;;;;;;;;;;;13.90;69.70;;;;;;5076041;28;19916;-87
2023/06/01 08:45:20;;;;;;;;;;;13.70;70.60;;;;;;5076205;28;20254;-87
2023/06/01 08:47:46;;;;;;;;;;;14.00;69.10;;;;;;5073721;28;20054;-87
2023/06/01 08:50:12;;;;;;;;;;;13.90;69.70;;;;;;5087676;28;19920;-86
2023/06/01 08:52:44;;;;;;;;;;;14.00;70.00;;;;;;5078595;28;19916;-87
2023/06/01 08:55:13;;;;;;;;;;;14.00;70.10;;;;;;5071977;28;19916;-88
2023/06/01 08:57:40;;;;;;;;;;;14.00;70.10;;;;;;5053412;28;19931;-86
2023/06/01 09:00:16;;;;;;;;;;;14.10;69.20;;;;;;5071296;28;19961;-87
2023/06/01 09:02:45;;;;;;;;;;;14.30;69.20;;;;;;5070035;28;19920;-87
2023/06/01 09:05:12;;;;;;;;;;;14.10;69.50;;;;;;5067571;28;19944;-87
2023/06/01 09:07:41;;;;;;;;;;;14.20;69.10;;;;;;5071883;28;19930;-87
2023/06/01 09:10:27;;;;;;;;;;;14.20;68.30;;;;;;5071841;28;19962;-86
2023/06/01 09:12:53;;;;;;;;;;;14.20;69.60;;;;;;5069023;28;20037;-87
2023/06/01 09:15:19;;;;;;;;;;;14.30;70.10;;;;;;5063902;28;19946;-85
2023/06/01 09:17:47;;;;;;;;;;;14.30;69.50;;;;;;5074243;28;19919;-89
2023/06/01 09:20:14;;;;;;;;;;;14.40;69.20;;;;;;5073538;28;19916;-88
2023/06/01 09:22:44;;;;;;;;;;;14.50;69.50;;;;;;5074470;28;19928;-86
2023/06/01 09:25:13;;;;;;;;;;;14.60;69.60;;;;;;5073929;28;20011;-86
2023/06/01 09:27:49;;;;;;;;;;;14.60;70.40;;;;;;5074150;28;19909;-86
2023/06/01 09:30:24;;;;;;;;;;;14.70;70.90;;;;;;5078121;28;19958;-86
2023/06/01 09:33:06;;;;;;;;;;;14.80;70.20;;;;;;5071327;28;20040;-87
2023/06/01 09:35:38;;;;;;;;;;;15.10;67.70;;;;;;5069326;28;19913;-87
2023/06/01 09:38:05;;;;;;;;;;;14.80;68.60;;;;;;5090772;28;19908;-88
2023/06/01 09:40:36;;;;;;;;;;;14.90;68.00;;;;;;5082043;28;19912;-87
2023/06/01 09:43:21;;;;;;;;;;;14.90;68.00;;;;;;5083908;28;19955;-86
2023/06/01 09:46:06;;;;;;;;;;;14.90;68.30;;;;;;5065150;28;19916;-87
2023/06/01 09:48:32;;;;;;;;;;;15.10;68.10;;;;;;5075104;28;20302;-87
2023/06/01 09:50:57;;;;;;;;;;;15.20;65.90;;;;;;5073554;28;19916;-86
2023/06/01 09:53:24;;;;;;;;;;;15.20;66.60;;;;;;5076592;28;20313;-85
2023/06/01 09:56:01;;;;;;;;;;;15.10;67.60;;;;;;5081064;28;20370;-85
2023/06/01 09:58:27;;;;;;;;;;;15.20;65.80;;;;;;5061062;28;19908;-87
2023/06/01 10:00:53;;;;;;;;;;;15.10;66.10;;;;;;5077630;28;19924;-86
2023/06/01 10:03:19;;;;;;;;;;;15.20;66.40;;;;;;5084695;28;19908;-87
2023/06/01 10:05:53;;;;;;;;;;;15.30;66.80;;;;;;5079213;28;19912;-87
2023/06/01 10:08:21;;;;;;;;;;;15.30;65.90;;;;;;5077697;28;19916;-86
2023/06/01 10:10:50;;;;;;;;;;;15.30;65.20;;;;;;5088575;28;19959;-86
2023/06/01 10:13:16;;;;;;;;;;;15.50;65.80;;;;;;5073912;28;19955;-86
2023/06/01 10:15:41;;;;;;;;;;;15.60;65.10;;;;;;5071355;28;19920;-87
2023/06/01 10:18:07;;;;;;;;;;;15.40;66.10;;;;;;5077175;28;20274;-85
2023/06/01 10:20:33;;;;;;;;;;;15.50;66.60;;;;;;5076945;28;19948;-86
2023/06/01 10:23:02;;;;;;;;;;;15.50;66.40;;;;;;5075236;28;19978;-86
2023/06/01 10:25:37;;;;;;;;;;;15.80;65.40;;;;;;5074800;28;20366;-86
2023/06/01 10:28:07;;;;;;;;;;;15.70;65.20;;;;;;5072484;28;20017;-85
2023/06/01 10:30:33;;;;;;;;;;;15.60;66.10;;;;;;5073166;28;19977;-85
2023/06/01 10:32:58;;;;;;;;;;;15.60;66.90;;;;;;5071332;28;20362;-86
2023/06/01 10:35:29;;;;;;;;;;;15.60;67.70;;;;;;5070721;28;19925;-86
2023/06/01 10:38:09;;;;;;;;;;;15.80;67.40;;;;;;5076157;28;19966;-85
2023/06/01 10:40:47;;;;;;;;;;;16.00;67.20;;;;;;5072223;28;19919;-86
2023/06/01 10:43:39;;;;;;;;;;;16.10;67.20;;;;;;5074532;28;19912;-87
2023/06/01 10:46:26;;;;;;;;;;;16.20;67.00;;;;;;5065586;28;20350;-87
2023/06/01 10:48:53;;;;;;;;;;;16.00;68.00;;;;;;5072535;28;20433;-87
2023/06/01 10:51:20;;;;;;;;;;;16.40;65.40;;;;;;5072626;28;19951;-87
2023/06/01 10:53:45;;;;;;;;;;;16.40;65.00;;;;;;5073536;28;19908;-84
2023/06/01 10:56:24;;;;;;;;;;;16.00;66.40;;;;;;5069787;28;19912;-86
2023/06/01 10:59:08;;;;;;;;;;;16.00;66.50;;;;;;5071507;28;19917;-85
2023/06/01 11:01:35;;;;;;;;;;;16.10;66.90;;;;;;5064870;28;19924;-86
2023/06/01 11:04:01;;;;;;;;;;;16.10;67.90;;;;;;5075227;28;19912;-86
2023/06/01 11:06:31;;;;;;;;;;;16.30;65.70;;;;;;5074420;28;19913;-84
2023/06/01 11:08:58;;;;;;;;;;;16.30;66.20;;;;;;5076809;28;19915;-84
2023/06/01 11:11:44;;;;;;;;;;;16.50;64.20;;;;;;5083766;28;19920;-84
2023/06/01 11:14:12;;;;;;;;;;;16.50;65.80;;;;;;5079537;28;19957;-85
2023/06/01 11:16:38;;;;;;;;;;;16.50;66.50;;;;;;5082412;28;19934;-86
2023/06/01 11:19:07;;;;;;;;;;;16.40;67.70;;;;;;5080653;28;19976;-85
2023/06/01 11:21:33;;;;;;;;;;;16.50;66.50;;;;;;5068316;28;19939;-83
2023/06/01 11:24:02;;;;;;;;;;;16.50;66.30;;;;;;5077832;28;20423;-85
2023/06/01 11:26:47;;;;;;;;;;;16.40;65.30;;;;;;5075532;28;19912;-85
2023/06/01 11:29:23;;;;;;;;;;;16.50;66.50;;;;;;5087283;28;20480;-85
2023/06/01 11:31:51;;;;;;;;;;;16.50;66.60;;;;;;5079062;28;19916;-86
2023/06/01 11:34:25;;;;;;;;;;;16.30;67.40;;;;;;5079547;28;19909;-86
2023/06/01 11:36:51;;;;;;;;;;;16.50;67.00;;;;;;5071734;28;19917;-83
2023/06/01 11:39:28;;;;;;;;;;;16.40;65.10;;;;;;5079625;28;19916;-83
2023/06/01 11:42:10;;;;;;;;;;;16.50;65.20;;;;;;5076775;28;19928;-83
2023/06/01 11:44:37;;;;;;;;;;;16.50;65.80;;;;;;5075641;28;19982;-83
2023/06/01 11:47:04;;;;;;;;;;;16.80;65.10;;;;;;5073560;28;19933;-84
2023/06/01 11:49:32;;;;;;;;;;;16.80;64.40;;;;;;5078666;28;19944;-83
2023/06/01 11:52:02;;;;;;;;;;;16.90;64.40;;;;;;5070456;28;19912;-83
2023/06/01 11:54:28;;;;;;;;;;;16.70;65.00;;;;;;5065000;28;20214;-84
2023/06/01 11:56:57;;;;;;;;;;;16.70;65.50;;;;;;5071735;28;19959;-83
2023/06/01 11:59:22;;;;;;;;;;;16.60;65.10;;;;;;5074375;28;19970;-82
2023/06/01 12:01:49;;;;;;;;;;;16.90;65.10;;;;;;5073519;28;20409;-84
2023/06/01 12:04:19;;;;;;;;;;;16.80;63.90;;;;;;5074211;28;19959;-84
2023/06/01 12:06:49;;;;;;;;;;;16.90;64.70;;;;;;5071386;28;19920;-84
2023/06/01 12:09:17;;;;;;;;;;;16.80;64.90;;;;;;5072619;28;19913;-83
2023/06/01 12:11:46;;;;;;;;;;;16.70;65.30;;;;;;5076990;28;19908;-83
2023/06/01 12:14:12;;;;;;;;;;;16.80;65.50;;;;;;5072944;28;20285;-83
2023/06/01 12:17:05;;;;;;;;;;;16.90;65.70;;;;;;5063545;28;19909;-84
2023/06/01 12:19:31;;;;;;;;;;;16.90;65.20;;;;;;5072918;28;20066;-82
2023/06/01 12:21:58;;;;;;;;;;;17.00;66.00;;;;;;5072054;28;19916;-83
2023/06/01 12:24:32;;;;;;;;;;;17.10;65.80;;;;;;5074796;28;20157;-83
2023/06/01 12:27:09;;;;;;;;;;;17.10;64.90;;;;;;5074825;28;19912;-84
2023/06/01 12:29:44;;;;;;;;;;;17.00;66.40;;;;;;5074952;28;19919;-85
2023/06/01 12:32:22;;;;;;;;;;;17.00;65.50;;;;;;5074471;28;19909;-84
2023/06/01 12:35:02;;;;;;;;;;;17.10;67.50;;;;;;5074921;28;20005;-84
2023/06/01 12:37:29;;;;;;;;;;;17.10;64.70;;;;;;5076182;28;19930;-84
2023/06/01 12:39:59;;;;;;;;;;;17.00;66.20;;;;;;5078940;28;20282;-84
2023/06/01 12:43:07;;;;;;;;;;;17.10;66.00;;;;;;5077206;28;19927;-85
2023/06/01 12:45:49;;;;;;;;;;;17.10;64.70;;;;;;5045785;28;19912;-82
2023/06/01 12:48:37;;;;;;;;;;;17.30;64.90;;;;;;5084677;28;19923;-84
2023/06/01 12:51:07;;;;;;;;;;;17.10;66.20;;;;;;5091465;28;19912;-81
2023/06/01 12:53:36;;;;;;;;;;;17.10;65.40;;;;;;5076348;28;19969;-84
2023/06/01 12:56:03;;;;;;;;;;;17.00;66.10;;;;;;5079858;28;19936;-83
2023/06/01 12:58:28;;;;;;;;;;;16.90;64.80;;;;;;5095126;28;19912;-84
2023/06/01 13:00:54;;;;;;;;;;;16.80;65.10;;;;;;5077086;28;19927;-84
2023/06/01 13:03:22;;;;;;;;;;;16.90;66.20;;;;;;5077827;28;19965;-83
2023/06/01 13:05:55;;;;;;;;;;;16.90;67.50;;;;;;5076168;28;19948;-83
2023/06/01 13:08:22;;;;;;;;;;;17.00;67.80;;;;;;5057407;28;20015;-84
2023/06/01 13:10:56;;;;;;;;;;;16.90;66.90;;;;;;5068418;28;19962;-82
2023/06/01 13:13:22;;;;;;;;;;;17.10;66.70;;;;;;5070575;28;19913;-83
2023/06/01 13:15:47;;;;;;;;;;;17.10;65.70;;;;;;5072319;28;19915;-82
2023/06/01 13:18:13;;;;;;;;;;;17.10;65.80;;;;;;5070995;28;19924;-82
2023/06/01 13:20:46;;;;;;;;;;;17.00;66.10;;;;;;5070981;28;19986;-82
2023/06/01 13:23:15;;;;;;;;;;;17.20;65.70;;;;;;5068680;28;19999;-83
2023/06/01 13:25:43;;;;;;;;;;;17.20;64.90;;;;;;5070238;28;19978;-82
2023/06/01 13:28:11;;;;;;;;;;;17.10;64.30;;;;;;5067913;28;19931;-83
2023/06/01 13:30:40;;;;;;;;;;;17.10;65.20;;;;;;5066305;28;19920;-82
2023/06/01 13:33:06;;;;;;;;;;;17.00;65.90;;;;;;5070428;28;20278;-83
2023/06/01 13:35:31;;;;;;;;;;;17.20;65.40;;;;;;5065407;28;19913;-86
2023/06/01 13:37:57;;;;;;;;;;;17.30;64.70;;;;;;5063335;28;19923;-84
2023/06/01 13:40:26;;;;;;;;;;;17.20;65.40;;;;;;5071406;28;20519;-83
2023/06/01 13:42:52;;;;;;;;;;;17.20;66.00;;;;;;5065731;28;19931;-83
2023/06/01 13:45:21;;;;;;;;;;;17.00;66.70;;;;;;5069437;28;19912;-83
2023/06/01 13:47:48;;;;;;;;;;;17.10;66.20;;;;;;5070836;28;19919;-84
2023/06/01 13:50:24;;;;;;;;;;;17.10;66.90;;;;;;5071523;28;19932;-83
2023/06/01 13:52:52;;;;;;;;;;;17.10;65.90;;;;;;5071665;28;19915;-83
2023/06/01 13:55:17;;;;;;;;;;;17.00;66.30;;;;;;5070328;28;19916;-84
2023/06/01 13:57:47;;;;;;;;;;;17.10;65.70;;;;;;5071098;28;19916;-84
2023/06/01 14:00:13;;;;;;;;;;;17.20;66.00;;;;;;5069860;28;20472;-83
2023/06/01 14:02:47;;;;;;;;;;;17.40;66.30;;;;;;5070961;28;22470;-82
2023/06/01 14:05:15;;;;;;;;;;;17.30;65.70;;;;;;5075018;28;19909;-83
2023/06/01 14:07:40;;;;;;;;;;;17.50;65.20;;;;;;5076288;28;19909;-84
2023/06/01 14:10:07;;;;;;;;;;;17.50;64.30;;;;;;5069492;28;19982;-84
2023/06/01 14:12:40;;;;;;;;;;;17.30;65.00;;;;;;5069082;28;19948;-84
2023/06/01 14:15:06;;;;;;;;;;;17.30;64.40;;;;;;5066243;28;19913;-83
2023/06/01 14:17:34;;;;;;;;;;;17.30;65.30;;;;;;5073077;28;20011;-84
2023/06/01 14:20:03;;;;;;;;;;;17.50;63.00;;;;;;5065869;28;19985;-82
2023/06/01 14:22:28;;;;;;;;;;;17.60;62.80;;;;;;5084023;28;19928;-85
2023/06/01 14:24:59;;;;;;;;;;;17.50;64.20;;;;;;5072286;28;19916;-83
2023/06/01 14:27:28;;;;;;;;;;;17.50;64.50;;;;;;5075256;28;19924;-87